TimeEDT,TemperatureF,Dew PointF,Humidity,Sea Level PressureIn,VisibilityMPH,Wind Direction,Wind SpeedMPH,Gust SpeedMPH,PrecipitationIn,Events,Conditions,WindDirDegrees,DateUTC
12:53 AM,71.1,64.9,81,29.63,10.0,Calm,Calm,-,N/A,,Partly Cloudy,0,2013-06-28 04:53:00
1:53 AM,69.1,64.0,84,29.61,10.0,South,4.6,-,N/A,,Clear,190,2013-06-28 05:53:00
2:53 AM,69.1,64.0,84,29.59,10.0,Calm,Calm,-,N/A,,Clear,0,2013-06-28 06:53:00
3:53 AM,68.0,64.0,87,29.59,10.0,SW,4.6,-,N/A,,Clear,230,2013-06-28 07:53:00
4:53 AM,68.0,64.0,87,29.60,10.0,Calm,Calm,-,N/A,,Clear,0,2013-06-28 08:53:00
5:53 AM,66.0,63.0,90,29.61,10.0,Calm,Calm,-,N/A,,Clear,0,2013-06-28 09:53:00
6:53 AM,69.1,64.9,87,29.60,10.0,Calm,Calm,-,N/A,,Clear,0,2013-06-28 10:53:00
7:53 AM,75.9,66.0,71,29.59,10.0,SW,5.8,-,N/A,,Clear,230,2013-06-28 11:53:00
8:53 AM,79.0,66.0,64,29.59,10.0,West,6.9,-,N/A,,Partly Cloudy,260,2013-06-28 12:53:00
9:53 AM,79.0,66.0,64,29.59,10.0,West,9.2,-,N/A,,Partly Cloudy,260,2013-06-28 13:53:00
10:53 AM,80.1,66.9,64,29.57,10.0,West,5.8,-,N/A,,Scattered Clouds,260,2013-06-28 14:53:00
11:53 AM,82.0,66.9,60,29.56,10.0,SW,10.4,-,0.00,,Scattered Clouds,230,2013-06-28 15:53:00
12:53 PM,84.9,66.9,55,29.55,10.0,SSW,8.1,16.1,N/A,,Partly Cloudy,200,2013-06-28 16:53:00
1:53 PM,82.9,66.0,56,29.53,10.0,WSW,10.4,-,N/A,,Clear,240,2013-06-28 17:53:00
2:53 PM,84.9,66.0,53,29.50,10.0,West,11.5,18.4,N/A,,Partly Cloudy,260,2013-06-28 18:53:00
3:53 PM,86.0,62.1,44,29.49,10.0,WSW,15.0,24.2,N/A,,Clear,240,2013-06-28 19:53:00
4:53 PM,80.1,57.9,47,29.55,10.0,WNW,18.4,32.2,N/A,,Mostly Cloudy,290,2013-06-28 20:53:00
5:53 PM,75.9,57.9,54,29.51,10.0,West,3.5,-,0.01,,Mostly Cloudy,270,2013-06-28 21:53:00
6:53 PM,73.9,60.1,62,29.51,10.0,Variable,5.8,-,N/A,,Clear,0,2013-06-28 22:53:00
7:53 PM,73.0,61.0,66,29.55,10.0,SW,5.8,-,N/A,,Partly Cloudy,220,2013-06-28 23:53:00
8:53 PM,73.9,61.0,64,29.56,10.0,West,9.2,-,N/A,,Partly Cloudy,280,2013-06-29 00:53:00
9:53 PM,73.0,61.0,66,29.56,10.0,East,4.6,-,N/A,,Overcast,100,2013-06-29 01:53:00
10:53 PM,73.0,59.0,61,29.56,10.0,West,9.2,-,N/A,,Partly Cloudy,260,2013-06-29 02:53:00
11:53 PM,72.0,60.1,66,29.56,10.0,Calm,Calm,-,N/A,,Mostly Cloudy,0,2013-06-29 03:53:00